createdAt,value
2023-02-03T00:02:23.011Z,99593.73
2023-02-03T00:04:50.734Z,99595.02
2023-02-03T00:07:18.251Z,99592.11
2023-02-03T00:09:46.451Z,99594.98
2023-02-03T00:12:14.403Z,99594.55
2023-02-03T00:14:45.607Z,99597.48
2023-02-03T00:17:14.905Z,99592.35
2023-02-03T00:19:42.828Z,99596.58
2023-02-03T00:22:10.369Z,99596.41
2023-02-03T00:24:38.394Z,99592.37
2023-02-03T00:27:06.779Z,99593.40
2023-02-03T00:29:34.513Z,99598.10
2023-02-03T00:32:02.185Z,99597.90
2023-02-03T00:34:30.506Z,99602.81
2023-02-03T00:36:58.195Z,99602.75
2023-02-03T00:39:45.500Z,99604.58
2023-02-03T00:42:13.185Z,99602.30
2023-02-03T00:44:40.681Z,99595.45
2023-02-03T00:47:08.453Z,99595.61
2023-02-03T00:49:35.828Z,99601.09
2023-02-03T00:52:03.352Z,99599.45
2023-02-03T00:54:32.708Z,99601.52
2023-02-03T00:57:02.316Z,99601.48
2023-02-03T00:59:29.886Z,99606.42
2023-02-03T01:01:57.341Z,99605.48
2023-02-03T01:04:24.941Z,99607.98
2023-02-03T01:06:55.926Z,99612.13
2023-02-03T01:09:24.163Z,99614.49
2023-02-03T01:11:51.496Z,99612.46
2023-02-03T01:14:19.004Z,99609.55
2023-02-03T01:16:46.460Z,99610.99
2023-02-03T01:19:14.405Z,99609.70
2023-02-03T01:21:41.926Z,99609.85
2023-02-03T01:24:09.503Z,99607.23
2023-02-03T01:26:40.466Z,99609.06
2023-02-03T01:29:07.995Z,99615.17
2023-02-03T01:31:39.594Z,99614.69
2023-02-03T01:34:12.179Z,99611.09
2023-02-03T01:36:39.748Z,99610.19
2023-02-03T01:39:07.502Z,99606.41
2023-02-03T01:41:37.519Z,99605.66
2023-02-03T01:44:43.142Z,99604.71
2023-02-03T01:47:17.296Z,99607.72
2023-02-03T01:49:49.463Z,99606.95
2023-02-03T01:52:16.787Z,99607.15
2023-02-03T02:45:31.101Z,99615.14
2023-02-03T02:48:11.417Z,99615.05
2023-02-03T02:50:40.923Z,99610.63
2023-02-03T02:53:08.274Z,99608.30
2023-02-03T02:55:38.895Z,99599.63
2023-02-03T02:58:10.496Z,99598.11
2023-02-03T03:00:38.657Z,99606.15
2023-02-03T03:03:17.371Z,99603.23
2023-02-03T03:05:56.039Z,99605.21
2023-02-03T03:08:41.231Z,99599.75
2023-02-03T03:11:09.495Z,99599.50
2023-02-03T03:13:40.581Z,99600.50
2023-02-03T03:16:09.097Z,99603.38
2023-02-03T03:18:43.025Z,99603.59
2023-02-03T03:21:16.214Z,99605.52
2023-02-03T03:23:44.875Z,99606.62
2023-02-03T03:26:14.639Z,99607.20
2023-02-03T03:29:14.648Z,99602.06
2023-02-03T03:31:42.249Z,99602.30
2023-02-03T03:34:09.901Z,99602.93
2023-02-03T03:36:44.656Z,99602.25
2023-02-03T03:39:27.678Z,99602.73
2023-02-03T03:42:04.747Z,99606.23
2023-02-03T03:44:43.814Z,99601.46
2023-02-03T03:47:28.836Z,99604.48
2023-02-03T03:49:56.572Z,99609.38
2023-02-03T03:52:26.460Z,99613.68
2023-02-03T03:54:53.790Z,99612.02
2023-02-03T03:57:58.657Z,99610.63
2023-02-03T04:00:27.900Z,99610.59
2023-02-03T04:02:55.563Z,99609.71
2023-02-03T04:05:23.515Z,99607.95
2023-02-03T04:07:50.976Z,99607.34
2023-02-03T04:10:31.722Z,99607.35
2023-02-03T04:12:59.319Z,99606.71
2023-02-03T04:15:27.695Z,99610.55
2023-02-03T04:17:56.793Z,99608.02
2023-02-03T04:20:24.553Z,99611.66
2023-02-03T04:22:52.381Z,99612.66
2023-02-03T04:25:19.938Z,99618.23
2023-02-03T04:27:47.440Z,99612.73
2023-02-03T04:30:14.806Z,99614.63
2023-02-03T04:32:42.129Z,99613.37
2023-02-03T04:35:09.870Z,99616.80
2023-02-03T04:37:38.142Z,99612.17
2023-02-03T04:40:06.326Z,99609.26
2023-02-03T04:42:35.974Z,99611.39
2023-02-03T04:45:03.714Z,99617.29
2023-02-03T04:47:31.380Z,99614.52
2023-02-03T04:49:58.709Z,99614.52
2023-02-03T04:52:26.099Z,99616.71
2023-02-03T04:54:53.796Z,99612.68
2023-02-03T04:57:21.148Z,99617.25
2023-02-03T04:59:48.458Z,99624.25
2023-02-03T05:02:15.931Z,99625.95
2023-02-03T05:04:43.220Z,99627.27
2023-02-03T05:07:11.213Z,99627.61
2023-02-03T05:09:38.943Z,99631.44
2023-02-03T05:12:07.462Z,99637.93
2023-02-03T05:14:36.431Z,99634.70
2023-02-03T05:17:03.714Z,99637.54
2023-02-03T05:19:31.646Z,99636.70
2023-02-03T05:21:59.012Z,99641.77
2023-02-03T05:24:26.362Z,99638.34
2023-02-03T05:26:53.880Z,99640.40
2023-02-03T05:29:21.495Z,99643.02
2023-02-03T05:31:49.200Z,99643.40
2023-02-03T05:34:17.337Z,99654.27
2023-02-03T05:36:44.830Z,99662.41
2023-02-03T05:39:12.986Z,99664.61
2023-02-03T05:41:52.979Z,99669.81
2023-02-03T05:44:21.621Z,99670.95
2023-02-03T05:46:49.067Z,99670.95
2023-02-03T05:49:16.391Z,99669.96
2023-02-03T05:51:43.806Z,99678.30
2023-02-03T05:54:11.254Z,99676.52
2023-02-03T05:56:38.663Z,99680.92
2023-02-03T05:59:06.148Z,99684.13
2023-02-03T06:01:34.226Z,99688.27
2023-02-03T06:04:02.318Z,99689.55
2023-02-03T06:06:33.615Z,99689.08
2023-02-03T06:09:03.623Z,99685.91
2023-02-03T06:11:31.473Z,99689.70
2023-02-03T06:13:59.798Z,99688.77
2023-02-03T06:16:27.997Z,99684.78
2023-02-03T06:18:59.133Z,99688.78
2023-02-03T06:21:26.879Z,99693.23
2023-02-03T06:23:55.668Z,99695.40
2023-02-03T06:26:23.587Z,99697.73
2023-02-03T06:28:50.997Z,99696.66
2023-02-03T06:31:19.123Z,99703.24
2023-02-03T06:33:46.569Z,99705.04
2023-02-03T06:36:13.951Z,99704.81
2023-02-03T06:38:41.346Z,99705.70
2023-02-03T06:41:08.610Z,99712.21
2023-02-03T06:43:36.684Z,99717.29
2023-02-03T06:46:04.230Z,99720.83
2023-02-03T06:48:31.600Z,99721.32
2023-02-03T06:50:59.081Z,99727.01
2023-02-03T06:53:26.432Z,99727.60
2023-02-03T06:55:54.169Z,99723.93
2023-02-03T06:58:22.021Z,99719.09
2023-02-03T07:00:51.084Z,99721.67
2023-02-03T07:03:18.794Z,99720.78
2023-02-03T07:05:46.477Z,99725.48
2023-02-03T07:08:13.993Z,99724.98
2023-02-03T07:10:41.549Z,99725.92
2023-02-03T07:13:08.953Z,99728.90
2023-02-03T07:15:37.363Z,99729.04
2023-02-03T07:18:05.544Z,99734.84
2023-02-03T07:20:32.939Z,99734.24
2023-02-03T07:23:00.615Z,99736.63
2023-02-03T07:25:27.949Z,99738.11
2023-02-03T07:27:55.814Z,99740.05
2023-02-03T07:30:23.170Z,99739.08
2023-02-03T07:32:51.293Z,99741.55
2023-02-03T07:35:18.771Z,99738.36
2023-02-03T07:37:46.300Z,99743.96
2023-02-03T07:40:14.522Z,99749.47
2023-02-03T07:42:43.205Z,99749.02
2023-02-03T07:45:11.002Z,99751.89
2023-02-03T07:47:38.531Z,99757.71
2023-02-03T07:50:06.135Z,99761.55
2023-02-03T07:52:34.355Z,99765.45
2023-02-03T07:55:02.016Z,99762.34
2023-02-03T07:57:30.015Z,99762.05
2023-02-03T07:59:57.816Z,99767.87
2023-02-03T08:02:25.107Z,99767.92
2023-02-03T08:04:52.500Z,99772.26
2023-02-03T08:07:20.116Z,99774.04
2023-02-03T08:09:47.580Z,99777.80
2023-02-03T08:12:14.906Z,99778.48
2023-02-03T08:14:42.206Z,99774.44
2023-02-03T08:17:09.479Z,99774.47
2023-02-03T08:19:36.890Z,99776.73
2023-02-03T08:22:04.200Z,99782.63
2023-02-03T08:24:31.574Z,99777.30
2023-02-03T08:27:00.622Z,99784.50
2023-02-03T08:29:28.024Z,99788.67
2023-02-03T08:31:55.925Z,99787.33
2023-02-03T08:34:23.671Z,99791.77
2023-02-03T08:36:51.330Z,99794.30
2023-02-03T08:39:19.379Z,99792.83
2023-02-03T08:41:47.447Z,99795.81
2023-02-03T08:44:19.659Z,99795.82
2023-02-03T08:46:51.898Z,99794.02
2023-02-03T08:49:20.261Z,99796.91
2023-02-03T08:51:48.280Z,99794.17
2023-02-03T08:54:15.914Z,99798.07
2023-02-03T08:56:43.615Z,99797.42
2023-02-03T08:59:11.974Z,99798.24
2023-02-03T09:01:48.246Z,99794.04
2023-02-03T09:04:24.252Z,99794.45
2023-02-03T09:06:54.337Z,99795.42
2023-02-03T09:09:22.696Z,99794.39
2023-02-03T09:11:50.647Z,99797.73
2023-02-03T09:14:18.229Z,99797.23
2023-02-03T09:16:46.119Z,99791.55
2023-02-03T09:19:13.822Z,99793.17
2023-02-03T09:21:47.789Z,99793.14
2023-02-03T09:24:17.398Z,99791.27
2023-02-03T09:26:45.351Z,99791.90
2023-02-03T09:29:13.118Z,99793.23
2023-02-03T09:31:41.709Z,99796.66
2023-02-03T09:34:09.964Z,99795.60
2023-02-03T09:36:37.936Z,99794.14
2023-02-03T09:39:05.607Z,99795.21
2023-02-03T09:42:11.428Z,99795.33
2023-02-03T09:45:11.077Z,99790.96
2023-02-03T09:47:40.906Z,99795.71
2023-02-03T09:50:30.090Z,99799.80
2023-02-03T09:52:58.734Z,99796.27
2023-02-03T09:55:40.909Z,99794.35
2023-02-03T09:58:14.420Z,99793.44
2023-02-03T11:53:36.322Z,99754.68
2023-02-03T11:56:45.115Z,99753.18
2023-02-03T11:59:40.638Z,99750.78
2023-02-03T12:02:40.524Z,99748.73
2023-02-03T12:05:23.608Z,99747.20
2023-02-03T12:08:03.078Z,99745.19
2023-02-03T12:10:49.004Z,99740.98
2023-02-03T12:13:24.493Z,99738.16
2023-02-03T12:16:25.829Z,99737.33
2023-02-03T12:19:25.418Z,99738.99
2023-02-03T12:22:02.163Z,99742.70
2023-02-03T12:24:42.845Z,99740.42
2023-02-03T12:27:27.052Z,99743.46
2023-02-03T12:29:58.020Z,99749.25
2023-02-03T12:32:36.608Z,99744.83
2023-02-03T12:35:22.671Z,99740.95
2023-02-03T12:37:54.208Z,99743.23
2023-02-03T12:40:53.284Z,99744.87
2023-02-03T12:43:43.294Z,99753.53
2023-02-03T12:46:13.785Z,99755.63
2023-02-03T12:48:46.384Z,99757.04
2023-02-03T12:51:41.370Z,99757.61
2023-02-03T12:54:29.377Z,99757.79
2023-02-03T12:57:00.869Z,99762.33
2023-02-03T12:59:29.538Z,99761.77
2023-02-03T13:02:13.610Z,99764.63
2023-02-03T13:04:43.869Z,99766.46
2023-02-03T13:07:36.225Z,99767.44
2023-02-03T13:10:09.247Z,99762.73
2023-02-03T13:12:45.926Z,99764.58
2023-02-03T13:15:34.240Z,99757.38
2023-02-03T13:18:27.994Z,99757.46
2023-02-03T13:20:55.835Z,99758.38
2023-02-03T13:23:23.909Z,99756.88
2023-02-03T13:25:58.143Z,99758.07
2023-02-03T13:28:54.297Z,99759.08
2023-02-03T13:31:32.040Z,99756.21
2023-02-03T13:34:12.094Z,99753.52
2023-02-03T13:36:58.492Z,99752.77
2023-02-03T13:39:34.349Z,99755.05
2023-02-03T13:42:25.326Z,99756.16
2023-02-03T13:45:06.303Z,99755.34
2023-02-03T13:47:34.508Z,99756.56
2023-02-03T13:50:05.893Z,99758.95
2023-02-03T13:52:42.020Z,99758.52
2023-02-03T13:55:42.230Z,99758.80
2023-02-03T13:58:25.145Z,99760.28
2023-02-03T14:00:53.101Z,99757.92
2023-02-03T14:03:26.693Z,99763.93
2023-02-03T14:05:57.640Z,99762.52
2023-02-03T14:08:25.420Z,99762.02
2023-02-03T14:11:31.219Z,99763.61
2023-02-03T14:14:05.514Z,99761.52
2023-02-03T14:16:35.494Z,99760.52
2023-02-03T14:19:04.053Z,99763.98
2023-02-03T14:21:52.432Z,99765.74
2023-02-03T14:24:20.698Z,99763.16
2023-02-03T14:26:50.399Z,99765.56
2023-02-03T14:29:26.061Z,99769.12
2023-02-03T14:32:00.425Z,99769.08
2023-02-03T14:34:38.023Z,99761.55
2023-02-03T14:37:14.534Z,99764.33
2023-02-03T14:40:16.039Z,99758.36
2023-02-03T14:43:16.095Z,99754.25
2023-02-03T14:46:08.254Z,99755.89
2023-02-03T14:49:00.762Z,99756.67
2023-02-03T14:51:47.389Z,99758.23
2023-02-03T14:54:43.112Z,99762.02
2023-02-03T14:57:25.057Z,99761.27
2023-02-03T15:00:03.253Z,99761.81
2023-02-03T15:02:31.332Z,99766.19
2023-02-03T15:05:14.353Z,99771.11
2023-02-03T15:07:46.452Z,99773.50
2023-02-03T15:10:20.846Z,99771.59
2023-02-03T15:12:49.535Z,99771.52
2023-02-03T15:15:29.040Z,99774.05
2023-02-03T15:17:59.215Z,99772.10
2023-02-03T15:20:32.868Z,99774.98
2023-02-03T15:23:01.853Z,99776.77
2023-02-03T15:25:30.849Z,99781.17
2023-02-03T15:28:19.650Z,99782.01
2023-02-03T15:30:52.829Z,99783.81
2023-02-03T15:33:22.478Z,99785.17
2023-02-03T15:35:55.654Z,99781.42
2023-02-03T15:38:29.296Z,99778.30
2023-02-03T15:40:59.418Z,99776.80
2023-02-03T15:43:27.233Z,99779.59
2023-02-03T15:46:08.521Z,99782.93
2023-02-03T15:48:46.901Z,99785.70
2023-02-03T15:51:50.207Z,99785.29
2023-02-03T15:54:45.948Z,99787.96
2023-02-03T15:57:20.503Z,99792.16
2023-02-03T16:00:00.045Z,99793.70
2023-02-03T16:02:36.035Z,99796.76
2023-02-03T16:05:06.054Z,99796.57
2023-02-03T16:07:34.017Z,99796.58
2023-02-03T16:10:01.957Z,99793.39
2023-02-03T16:12:31.527Z,99794.70
2023-02-03T16:15:00.390Z,99792.20
2023-02-03T16:17:29.195Z,99794.20
2023-02-03T16:20:12.181Z,99798.36
2023-02-03T16:22:47.576Z,99798.90
2023-02-03T16:25:23.648Z,99797.58
2023-02-03T16:28:36.544Z,99799.55
2023-02-03T16:31:33.153Z,99794.13
2023-02-03T16:34:20.547Z,99792.75
2023-02-03T16:37:07.267Z,99795.52
2023-02-03T16:39:54.178Z,99792.93
2023-02-03T16:42:40.225Z,99791.46
2023-02-03T16:45:36.063Z,99791.33
2023-02-03T16:48:23.195Z,99792.30
2023-02-03T16:50:53.603Z,99793.84
2023-02-03T16:53:28.117Z,99790.41
2023-02-03T16:55:56.870Z,99788.58
2023-02-03T16:58:25.101Z,99790.36
2023-02-03T17:00:53.163Z,99787.45
2023-02-03T17:03:25.477Z,99785.66
2023-02-03T17:05:53.114Z,99790.08
2023-02-03T17:08:22.721Z,99789.80
2023-02-03T17:10:50.839Z,99790.17
2023-02-03T17:13:19.612Z,99789.70
2023-02-03T17:15:48.639Z,99786.34
2023-02-03T17:18:16.203Z,99785.61
2023-02-03T17:20:44.114Z,99789.16
2023-02-03T17:23:11.729Z,99788.02
2023-02-03T17:25:39.458Z,99785.21
2023-02-03T17:28:08.092Z,99788.63
2023-02-03T17:30:36.051Z,99785.91
2023-02-03T17:33:11.782Z,99791.80
2023-02-03T17:35:43.299Z,99787.57
2023-02-03T17:38:12.332Z,99789.09
2023-02-03T17:54:37.007Z,99791.61
2023-02-03T17:57:04.736Z,99787.59
2023-02-03T19:27:45.701Z,99764.29
2023-02-03T19:30:13.851Z,99764.39
2023-02-03T19:32:42.735Z,99763.67
2023-02-03T19:35:12.448Z,99764.98
2023-02-03T19:37:41.674Z,99761.06
2023-02-03T19:40:10.253Z,99762.27
2023-02-03T19:42:38.193Z,99762.20
2023-02-03T19:45:06.711Z,99760.59
2023-02-03T19:47:35.014Z,99760.36
2023-02-03T19:50:03.145Z,99762.14
2023-02-03T19:52:31.057Z,99760.82
2023-02-03T19:54:58.978Z,99764.60
2023-02-03T19:57:26.601Z,99764.30
2023-02-03T19:59:54.398Z,99761.17
2023-02-03T20:02:22.204Z,99761.50
2023-02-03T20:04:50.352Z,99761.98
2023-02-03T20:07:22.930Z,99755.76
2023-02-03T20:09:52.217Z,99753.67
2023-02-03T20:12:19.818Z,99749.49
2023-02-03T20:14:47.777Z,99749.21
2023-02-03T20:17:15.556Z,99748.46
2023-02-03T20:19:43.216Z,99750.28
2023-02-03T20:22:10.716Z,99743.70
2023-02-03T20:24:38.516Z,99747.79
2023-02-03T20:27:06.419Z,99749.13
2023-02-03T20:29:34.904Z,99753.61
2023-02-03T20:32:04.400Z,99750.42
2023-02-03T20:34:33.095Z,99753.41
2023-02-03T20:37:01.072Z,99751.48
2023-02-03T20:39:29.700Z,99748.79
2023-02-03T20:41:57.415Z,99748.48
2023-02-03T20:44:24.903Z,99747.76
2023-02-03T20:46:53.011Z,99750.05
2023-02-03T20:49:21.303Z,99752.02
2023-02-03T20:51:48.727Z,99753.73
2023-02-03T20:54:18.074Z,99754.68
2023-02-03T20:56:45.415Z,99756.66
2023-02-03T20:59:13.819Z,99756.38
2023-02-03T21:01:41.699Z,99755.92
2023-02-03T21:04:31.926Z,99760.00
2023-02-03T21:06:59.359Z,99760.77
2023-02-03T21:09:27.178Z,99759.57
2023-02-03T21:11:54.715Z,99751.65
2023-02-03T21:14:26.961Z,99748.58
2023-02-03T21:16:54.623Z,99749.27
2023-02-03T21:19:31.197Z,99754.61
2023-02-03T21:22:12.900Z,99759.38
2023-02-03T21:24:47.516Z,99759.90
2023-02-03T21:27:30.787Z,99757.97
2023-02-03T21:29:59.484Z,99759.95
2023-02-03T21:32:40.281Z,99754.64
2023-02-03T21:35:26.143Z,99751.52
2023-02-03T21:37:56.819Z,99749.05
2023-02-03T21:40:29.582Z,99743.96
2023-02-03T21:42:58.433Z,99745.51
2023-02-03T21:45:30.610Z,99747.27
2023-02-03T21:47:58.346Z,99746.92
2023-02-03T21:50:33.964Z,99749.71
2023-02-03T21:53:07.198Z,99749.10
2023-02-03T21:55:35.410Z,99750.29
2023-02-03T21:58:30.035Z,99752.88
2023-02-03T22:00:58.976Z,99750.83
2023-02-03T22:03:35.058Z,99753.54
2023-02-03T22:06:08.124Z,99753.77
2023-02-03T22:08:43.106Z,99750.77
2023-02-03T22:11:10.874Z,99755.69
2023-02-03T22:13:40.347Z,99756.47
2023-02-03T22:16:07.978Z,99753.06
2023-02-03T22:18:35.354Z,99752.25
2023-02-03T22:21:03.039Z,99754.32
2023-02-03T22:23:30.689Z,99757.80
2023-02-03T22:25:58.082Z,99758.04
2023-02-03T22:28:25.739Z,99759.33
2023-02-03T22:30:53.948Z,99761.39
2023-02-03T22:33:21.461Z,99756.65
2023-02-03T22:35:48.957Z,99763.37
2023-02-03T22:38:16.660Z,99761.05
2023-02-03T22:40:44.521Z,99761.31
2023-02-03T22:43:12.367Z,99763.36
2023-02-03T22:45:40.528Z,99765.44
2023-02-03T22:48:07.941Z,99766.55
2023-02-03T22:50:37.127Z,99763.35
2023-02-03T22:53:05.702Z,99761.19
2023-02-03T22:55:37.698Z,99758.13
2023-02-03T22:58:05.604Z,99755.91
2023-02-03T23:00:33.414Z,99756.08
2023-02-03T23:03:00.953Z,99754.75
2023-02-03T23:05:28.358Z,99755.95
2023-02-03T23:07:56.489Z,99756.58
2023-02-03T23:10:25.351Z,99752.22
2023-02-03T23:12:54.159Z,99751.25
2023-02-03T23:15:21.634Z,99746.48
2023-02-03T23:17:49.402Z,99744.85
2023-02-03T23:20:18.298Z,99741.12
2023-02-03T23:22:46.655Z,99737.56
2023-02-03T23:25:14.177Z,99739.02
2023-02-03T23:27:41.654Z,99738.81
2023-02-03T23:30:09.973Z,99736.99
2023-02-03T23:32:37.871Z,99740.05
2023-02-03T23:35:24.876Z,99745.13
2023-02-03T23:37:52.389Z,99747.04
2023-02-03T23:40:20.082Z,99748.89
2023-02-03T23:42:47.595Z,99749.41
2023-02-03T23:45:16.040Z,99749.30
2023-02-03T23:47:44.482Z,99748.35
2023-02-03T23:50:14.016Z,99748.29
2023-02-03T23:52:41.925Z,99747.37
2023-02-03T23:55:11.555Z,99747.98
2023-02-03T23:57:42.243Z,99747.69
